Time;durP1;ratioP1;P1;durP2;ratioP2;P2;SDS_P1;SDS_P2;PMS_P1;PMS_P2;Temp;Humidity;BMP_temperature;BMP_pressure;BME280_temperature;BME280_humidity;BME280_pressure;Samples;Min_cycle;Max_cycle;Signal;HPM_P1;HPM_P2
2023/04/15 00:01:52;;;;;;;18.15;9.40;;;;;;;;;;5033270;28;20464;-69
2023/04/15 00:04:17;;;;;;;16.73;10.13;;;;;;;;;;5033066;28;20025;-69
2023/04/15 00:06:48;;;;;;;17.17;9.00;;;;;;;;;;5034985;28;20462;-69
2023/04/15 00:09:14;;;;;;;15.30;8.70;;;;;;;;;;5033410;28;20021;-69
2023/04/15 00:11:39;;;;;;;14.50;8.48;;;;;;;;;;5042915;28;20422;-67
2023/04/15 00:14:05;;;;;;;12.18;6.90;;;;;;;;;;5049987;28;20474;-70
2023/04/15 00:16:30;;;;;;;11.73;7.00;;;;;;;;;;5050612;28;20024;-68
2023/04/15 00:18:55;;;;;;;13.52;6.82;;;;;;;;;;5049921;28;20040;-68
2023/04/15 00:21:21;;;;;;;12.35;5.28;;;;;;;;;;5048329;28;20459;-69
2023/04/15 00:23:51;;;;;;;11.55;5.97;;;;;;;;;;5049986;28;20020;-69
2023/04/15 00:26:18;;;;;;;11.73;5.68;;;;;;;;;;5049757;28;20021;-68
2023/04/15 00:28:43;;;;;;;12.10;5.80;;;;;;;;;;5050332;28;20434;-70
2023/04/15 00:31:08;;;;;;;13.05;6.53;;;;;;;;;;5049652;28;20029;-69
2023/04/15 00:33:35;;;;;;;11.02;6.45;;;;;;;;;;5049977;28;20039;-70
2023/04/15 00:36:01;;;;;;;12.07;6.00;;;;;;;;;;5050004;28;20094;-68
2023/04/15 00:38:27;;;;;;;9.55;5.72;;;;;;;;;;5049993;28;20482;-71
2023/04/15 00:40:52;;;;;;;8.30;5.00;;;;;;;;;;5048631;28;20104;-69
2023/04/15 00:43:17;;;;;;;10.40;5.68;;;;;;;;;;5050428;28;20029;-69
2023/04/15 00:45:43;;;;;;;9.27;5.47;;;;;;;;;;5049533;28;20556;-68
2023/04/15 00:48:08;;;;;;;10.52;6.30;;;;;;;;;;5049972;28;20052;-69
2023/04/15 00:50:33;;;;;;;8.85;5.25;;;;;;;;;;5049009;28;20425;-69
2023/04/15 00:52:58;;;;;;;13.80;5.13;;;;;;;;;;5049884;28;20490;-70
2023/04/15 00:55:24;;;;;;;13.52;5.88;;;;;;;;;;5046860;28;20520;-69
2023/04/15 00:57:49;;;;;;;8.20;5.00;;;;;;;;;;5049513;28;20103;-68
2023/04/15 01:00:15;;;;;;;10.55;6.05;;;;;;;;;;5047385;28;20079;-68
2023/04/15 01:02:40;;;;;;;9.57;5.55;;;;;;;;;;5030346;28;20079;-69
2023/04/15 01:05:06;;;;;;;10.90;5.82;;;;;;;;;;5047016;28;20020;-68
2023/04/15 01:07:31;;;;;;;11.32;5.95;;;;;;;;;;5048831;28;20082;-70
2023/04/15 01:09:57;;;;;;;9.88;5.43;;;;;;;;;;5049527;28;20056;-69
2023/04/15 01:12:23;;;;;;;9.05;5.40;;;;;;;;;;5049195;28;20048;-70
2023/04/15 01:14:48;;;;;;;10.23;5.53;;;;;;;;;;5048832;28;20086;-68
2023/04/15 01:17:14;;;;;;;11.05;6.28;;;;;;;;;;5049270;28;20393;-69
2023/04/15 01:19:39;;;;;;;13.05;6.55;;;;;;;;;;5049254;28;20017;-66
2023/04/15 01:22:04;;;;;;;9.45;5.55;;;;;;;;;;5047577;28;20485;-68
2023/04/15 01:24:30;;;;;;;11.55;6.82;;;;;;;;;;5048726;28;20021;-70
2023/04/15 01:26:56;;;;;;;12.68;6.03;;;;;;;;;;5049300;28;20017;-69
2023/04/15 01:29:22;;;;;;;11.75;6.50;;;;;;;;;;5049138;28;20023;-69
2023/04/15 01:31:51;;;;;;;12.77;7.03;;;;;;;;;;5049454;28;20041;-69
2023/04/15 01:34:16;;;;;;;;;;;;;;;;;;5049363;28;20052;-69
2023/04/15 01:36:41;;;;;;;9.98;5.85;;;;;;;;;;5048784;28;19904;-69
2023/04/15 01:39:07;;;;;;;11.23;5.97;;;;;;;;;;5048938;28;20063;-68
2023/04/15 01:41:32;;;;;;;10.48;6.03;;;;;;;;;;5052961;28;20016;-68
2023/04/15 01:43:57;;;;;;;10.82;5.85;;;;;;;;;;5051556;28;20021;-69
2023/04/15 01:46:23;;;;;;;13.52;5.93;;;;;;;;;;5053136;28;20021;-68
2023/04/15 01:48:48;;;;;;;13.20;6.15;;;;;;;;;;5053055;28;20501;-67
2023/04/15 01:51:13;;;;;;;12.35;6.80;;;;;;;;;;5052866;28;20039;-68
2023/04/15 01:53:39;;;;;;;11.55;6.78;;;;;;;;;;5050250;28;20025;-68
2023/04/15 01:56:06;;;;;;;12.77;6.95;;;;;;;;;;5052824;28;20017;-71
2023/04/15 01:58:31;;;;;;;12.43;6.32;;;;;;;;;;5052343;28;20021;-68
2023/04/15 02:00:57;;;;;;;14.23;7.28;;;;;;;;;;5041235;28;20152;-71
2023/04/15 02:03:23;;;;;;;10.68;5.30;;;;;;;;;;5037858;28;20024;-69
2023/04/15 02:05:49;;;;;;;12.68;6.60;;;;;;;;;;5052579;28;20063;-68
2023/04/15 02:08:15;;;;;;;13.27;5.75;;;;;;;;;;5052445;28;20143;-69
2023/04/15 02:10:40;;;;;;;9.95;5.72;;;;;;;;;;5052670;28;20112;-69
2023/04/15 02:13:05;;;;;;;10.55;5.75;;;;;;;;;;5052379;28;20060;-69
2023/04/15 02:15:32;;;;;;;11.95;5.30;;;;;;;;;;5052574;28;20025;-68
2023/04/15 02:17:59;;;;;;;10.60;5.72;;;;;;;;;;5052412;28;20028;-68
2023/04/15 02:20:25;;;;;;;11.57;5.70;;;;;;;;;;5052717;28;20045;-68
2023/04/15 02:22:51;;;;;;;12.25;5.72;;;;;;;;;;5052053;28;20098;-69
2023/04/15 02:25:16;;;;;;;11.93;6.25;;;;;;;;;;5052189;28;20479;-70
2023/04/15 02:27:42;;;;;;;13.90;5.90;;;;;;;;;;5052534;28;20028;-70
2023/04/15 02:30:08;;;;;;;11.93;6.30;;;;;;;;;;5052770;28;20118;-67
2023/04/15 02:32:33;;;;;;;11.35;6.38;;;;;;;;;;5052186;28;20106;-67
2023/04/15 02:35:02;;;;;;;12.65;6.63;;;;;;;;;;5052098;28;20075;-70
2023/04/15 02:37:29;;;;;;;14.73;7.28;;;;;;;;;;5052318;28;20021;-67
2023/04/15 02:39:55;;;;;;;10.02;5.43;;;;;;;;;;5052416;28;20515;-69
2023/04/15 02:42:20;;;;;;;11.20;5.45;;;;;;;;;;5052059;28;20021;-68
2023/04/15 02:44:45;;;;;;;11.65;6.05;;;;;;;;;;5052091;28;20067;-69
2023/04/15 02:47:11;;;;;;;11.32;6.00;;;;;;;;;;5052416;28;20029;-70
2023/04/15 02:49:36;;;;;;;15.45;7.22;;;;;;;;;;5051611;28;20099;-69
2023/04/15 02:52:01;;;;;;;13.82;7.07;;;;;;;;;;5050507;28;20116;-69
2023/04/15 02:54:29;;;;;;;17.27;7.88;;;;;;;;;;5048878;28;20024;-67
2023/04/15 02:56:55;;;;;;;19.67;8.80;;;;;;;;;;5051782;28;20608;-69
2023/04/15 02:59:21;;;;;;;16.60;8.52;;;;;;;;;;5044309;28;20541;-69
2023/04/15 03:01:46;;;;;;;20.02;9.23;;;;;;;;;;5045883;28;20406;-69
2023/04/15 03:04:12;;;;;;;22.77;9.00;;;;;;;;;;5029887;28;20022;-69
2023/04/15 03:06:37;;;;;;;17.88;9.32;;;;;;;;;;5047327;28;20036;-69
2023/04/15 03:09:02;;;;;;;22.48;10.57;;;;;;;;;;5051774;28;20024;-68
2023/04/15 03:11:28;;;;;;;22.05;11.30;;;;;;;;;;5051433;28;20544;-69
2023/04/15 03:13:53;;;;;;;21.35;9.50;;;;;;;;;;5051313;28;20508;-67
2023/04/15 03:16:18;;;;;;;23.42;10.75;;;;;;;;;;5051332;28;20021;-69
2023/04/15 03:18:44;;;;;;;16.67;8.73;;;;;;;;;;5051323;28;20098;-68
2023/04/15 03:21:09;;;;;;;17.27;8.65;;;;;;;;;;5051203;28;20360;-69
2023/04/15 03:23:34;;;;;;;18.10;8.80;;;;;;;;;;5050870;28;20017;-67
2023/04/15 03:26:03;;;;;;;13.55;7.93;;;;;;;;;;5050973;28;20032;-69
2023/04/15 03:28:28;;;;;;;17.25;7.63;;;;;;;;;;5051254;28;20231;-71
2023/04/15 03:30:54;;;;;;;16.48;8.13;;;;;;;;;;5051425;28;20029;-69
2023/04/15 03:33:19;;;;;;;19.05;9.13;;;;;;;;;;5051226;28;20114;-70
2023/04/15 03:35:45;;;;;;;16.45;7.72;;;;;;;;;;5050661;28;20433;-69
2023/04/15 03:38:10;;;;;;;17.02;8.63;;;;;;;;;;5050873;28;20067;-69
2023/04/15 03:40:36;;;;;;;16.75;7.75;;;;;;;;;;5051163;28;20653;-69
2023/04/15 03:43:01;;;;;;;18.92;10.35;;;;;;;;;;5051303;28;20032;-69
2023/04/15 03:45:26;;;;;;;17.67;8.80;;;;;;;;;;5050872;28;20021;-68
2023/04/15 03:47:52;;;;;;;17.15;8.75;;;;;;;;;;5050895;28;20021;-68
2023/04/15 03:50:17;;;;;;;13.07;7.60;;;;;;;;;;5050806;28;20023;-69
2023/04/15 03:52:43;;;;;;;15.45;8.18;;;;;;;;;;5050466;28;20023;-69
2023/04/15 03:55:08;;;;;;;12.07;6.28;;;;;;;;;;5050218;28;20024;-69
2023/04/15 03:57:36;;;;;;;13.50;7.82;;;;;;;;;;5050632;28;20021;-69
2023/04/15 04:00:02;;;;;;;15.20;7.13;;;;;;;;;;5048590;28;20005;-68
2023/04/15 04:02:28;;;;;;;10.85;6.25;;;;;;;;;;5033943;28;20037;-68
2023/04/15 04:04:53;;;;;;;11.98;6.00;;;;;;;;;;5046944;28;20021;-68
2023/04/15 04:07:18;;;;;;;11.85;5.82;;;;;;;;;;5050400;28;20386;-70
2023/04/15 04:09:43;;;;;;;14.32;6.50;;;;;;;;;;5050136;28;20024;-68
2023/04/15 04:12:09;;;;;;;11.82;6.00;;;;;;;;;;5049258;28;20110;-69
2023/04/15 04:14:34;;;;;;;11.55;5.70;;;;;;;;;;5050229;28;20035;-69
2023/04/15 04:16:59;;;;;;;10.07;5.47;;;;;;;;;;5050255;28;20040;-70
2023/04/15 04:19:25;;;;;;;12.77;6.25;;;;;;;;;;5050138;28;20017;-70
2023/04/15 04:21:50;;;;;;;10.70;5.53;;;;;;;;;;5050223;28;20017;-68
2023/04/15 04:24:15;;;;;;;11.43;5.78;;;;;;;;;;5049634;28;20025;-69
2023/04/15 04:26:41;;;;;;;12.75;6.32;;;;;;;;;;5050293;28;20013;-69
2023/04/15 04:29:06;;;;;;;12.07;6.35;;;;;;;;;;5050496;28;20124;-70
2023/04/15 04:31:32;;;;;;;9.73;5.35;;;;;;;;;;5049768;28;20083;-67
2023/04/15 04:33:57;;;;;;;11.48;5.97;;;;;;;;;;5049701;28;20025;-69
2023/04/15 04:36:22;;;;;;;9.32;4.78;;;;;;;;;;5050169;28;20020;-69
2023/04/15 04:38:47;;;;;;;12.45;5.75;;;;;;;;;;5049628;28;20135;-68
2023/04/15 04:41:13;;;;;;;10.13;5.50;;;;;;;;;;5049623;28;20096;-68
2023/04/15 04:43:38;;;;;;;9.95;5.25;;;;;;;;;;5049416;28;20040;-71
2023/04/15 04:46:03;;;;;;;10.73;5.30;;;;;;;;;;5049747;28;20082;-67
2023/04/15 04:48:32;;;;;;;10.50;5.43;;;;;;;;;;5049703;28;20071;-68
2023/04/15 04:50:57;;;;;;;11.82;5.63;;;;;;;;;;5048990;28;20526;-68
2023/04/15 04:53:23;;;;;;;9.98;5.30;;;;;;;;;;5046668;28;20113;-69
2023/04/15 04:55:48;;;;;;;9.93;4.90;;;;;;;;;;5049068;28;20024;-70
2023/04/15 04:58:13;;;;;;;10.32;5.63;;;;;;;;;;5049705;28;20082;-69
2023/04/15 05:00:39;;;;;;;10.75;5.50;;;;;;;;;;5046842;28;20413;-69
2023/04/15 05:03:04;;;;;;;12.75;5.63;;;;;;;;;;5047154;28;20021;-69
2023/04/15 05:05:29;;;;;;;11.27;6.00;;;;;;;;;;5048565;28;20025;-69
2023/04/15 05:07:55;;;;;;;12.80;6.30;;;;;;;;;;5049029;28;20563;-72
2023/04/15 05:10:20;;;;;;;10.00;5.28;;;;;;;;;;5049019;28;20032;-69
2023/04/15 05:12:45;;;;;;;14.77;6.55;;;;;;;;;;5047614;28;20025;-69
2023/04/15 05:15:11;;;;;;;11.55;5.47;;;;;;;;;;5048726;28;20399;-70
2023/04/15 05:17:36;;;;;;;11.15;5.47;;;;;;;;;;5048105;28;20028;-70
2023/04/15 05:20:02;;;;;;;10.60;5.03;;;;;;;;;;5049332;28;20025;-68
2023/04/15 05:22:30;;;;;;;10.52;5.10;;;;;;;;;;5049827;28;20100;-70
2023/04/15 05:24:55;;;;;;;9.02;4.55;;;;;;;;;;5046946;28;20108;-68
2023/04/15 05:27:21;;;;;;;10.10;5.35;;;;;;;;;;5048957;28;20108;-68
2023/04/15 05:29:46;;;;;;;9.90;4.82;;;;;;;;;;5047897;28;20439;-69
2023/04/15 05:32:11;;;;;;;15.07;5.15;;;;;;;;;;5050517;28;20021;-67
2023/04/15 05:34:37;;;;;;;10.30;5.18;;;;;;;;;;5048906;28;20021;-69
2023/04/15 05:37:02;;;;;;;7.28;4.10;;;;;;;;;;5049074;28;20536;-70
2023/04/15 05:39:27;;;;;;;12.82;6.85;;;;;;;;;;5048752;28;20102;-68
2023/04/15 05:41:52;;;;;;;9.80;5.43;;;;;;;;;;5047703;28;20063;-72
2023/04/15 05:44:17;;;;;;;12.38;5.47;;;;;;;;;;5048802;28;20013;-69
2023/04/15 05:46:43;;;;;;;12.38;6.47;;;;;;;;;;5047677;28;20063;-69
2023/04/15 05:49:08;;;;;;;10.57;5.85;;;;;;;;;;5040413;28;20551;-70
2023/04/15 05:51:33;;;;;;;11.50;5.93;;;;;;;;;;5048396;28;20355;-70
2023/04/15 05:53:58;;;;;;;11.60;5.97;;;;;;;;;;5047891;28;20588;-71
2023/04/15 05:56:25;;;;;;;12.40;6.20;;;;;;;;;;5049404;28;20385;-70
2023/04/15 05:58:51;;;;;;;11.50;6.07;;;;;;;;;;5048487;28;20025;-68
2023/04/15 06:01:16;;;;;;;11.20;5.80;;;;;;;;;;5044896;28;20071;-71
2023/04/15 06:03:42;;;;;;;9.77;5.63;;;;;;;;;;5036781;28;20005;-71
2023/04/15 06:06:07;;;;;;;9.25;5.15;;;;;;;;;;5049339;28;20406;-70
2023/04/15 06:08:32;;;;;;;13.43;6.55;;;;;;;;;;5049108;28;20089;-69
2023/04/15 06:10:58;;;;;;;11.90;6.20;;;;;;;;;;5047810;28;20040;-68
2023/04/15 06:13:23;;;;;;;8.48;4.50;;;;;;;;;;5047712;28;20096;-69
2023/04/15 06:15:48;;;;;;;11.57;5.20;;;;;;;;;;5040859;28;20037;-70
2023/04/15 06:18:13;;;;;;;9.80;5.25;;;;;;;;;;5034410;28;20033;-71
2023/04/15 06:20:39;;;;;;;10.38;5.18;;;;;;;;;;5031277;28;20028;-69
2023/04/15 06:23:04;;;;;;;11.15;5.28;;;;;;;;;;5027011;28;20514;-70
2023/04/15 06:25:29;;;;;;;10.93;5.22;;;;;;;;;;5031726;28;20028;-67
2023/04/15 06:27:55;;;;;;;12.77;5.30;;;;;;;;;;5038940;28;20021;-67
2023/04/15 06:30:20;;;;;;;7.03;4.07;;;;;;;;;;5038185;28;20025;-68
2023/04/15 06:32:46;;;;;;;9.25;5.20;;;;;;;;;;5032842;28;20063;-70
2023/04/15 06:35:11;;;;;;;12.80;5.20;;;;;;;;;;5030215;28;20659;-71
2023/04/15 06:37:36;;;;;;;8.85;4.75;;;;;;;;;;5038862;28;20498;-70
2023/04/15 06:40:03;;;;;;;9.27;5.30;;;;;;;;;;5038856;28;20526;-71
2023/04/15 06:42:29;;;;;;;9.57;5.32;;;;;;;;;;5035631;28;20486;-65
2023/04/15 06:44:55;;;;;;;9.00;5.25;;;;;;;;;;5039305;28;20029;-68
2023/04/15 06:47:20;;;;;;;10.98;4.80;;;;;;;;;;5039015;28;20021;-71
2023/04/15 06:49:45;;;;;;;10.23;4.82;;;;;;;;;;5034736;28;20032;-68
2023/04/15 06:52:11;;;;;;;10.73;5.60;;;;;;;;;;5051465;28;20063;-68
2023/04/15 06:54:36;;;;;;;9.95;5.15;;;;;;;;;;5047697;28;20052;-69
2023/04/15 06:57:02;;;;;;;10.27;5.15;;;;;;;;;;5051273;28;20025;-70
2023/04/15 06:59:27;;;;;;;11.15;5.60;;;;;;;;;;5048994;28;20024;-70
2023/04/15 07:01:53;;;;;;;10.77;6.25;;;;;;;;;;5037072;28;20017;-71
2023/04/15 07:04:18;;;;;;;11.07;6.22;;;;;;;;;;5042891;28;20088;-71
2023/04/15 07:06:43;;;;;;;10.27;5.72;;;;;;;;;;5050529;28;20110;-71
2023/04/15 07:09:09;;;;;;;11.38;6.13;;;;;;;;;;5052117;28;20021;-70
2023/04/15 07:11:35;;;;;;;11.27;5.97;;;;;;;;;;5051599;28;20387;-70
2023/04/15 07:14:00;;;;;;;11.88;6.30;;;;;;;;;;5050552;28;20029;-70
2023/04/15 07:16:25;;;;;;;12.07;6.32;;;;;;;;;;5051622;28;20087;-68
2023/04/15 07:18:51;;;;;;;13.57;6.60;;;;;;;;;;5051114;28;20074;-68
2023/04/15 07:21:16;;;;;;;15.80;7.30;;;;;;;;;;5047307;28;20017;-68
2023/04/15 07:23:42;;;;;;;16.45;7.70;;;;;;;;;;5050824;28;20059;-69
2023/04/15 07:26:07;;;;;;;17.45;7.80;;;;;;;;;;5051033;28;20021;-66
2023/04/15 07:28:33;;;;;;;12.63;6.80;;;;;;;;;;5051091;28;20025;-66
2023/04/15 07:30:58;;;;;;;12.57;6.55;;;;;;;;;;5048646;28;20110;-71
2023/04/15 07:33:23;;;;;;;12.10;6.22;;;;;;;;;;5051492;28;20029;-70
2023/04/15 07:35:48;;;;;;;14.68;7.57;;;;;;;;;;5050756;28;20385;-70
2023/04/15 07:38:14;;;;;;;14.68;7.45;;;;;;;;;;5050699;28;20067;-70
2023/04/15 07:40:39;;;;;;;13.73;7.20;;;;;;;;;;5050420;28;20029;-69
2023/04/15 07:43:05;;;;;;;15.68;7.57;;;;;;;;;;5050371;28;20558;-72
2023/04/15 07:45:30;;;;;;;15.20;8.27;;;;;;;;;;5050029;28;20047;-70
2023/04/15 07:47:56;;;;;;;16.17;7.70;;;;;;;;;;5050002;28;20043;-69
2023/04/15 07:50:22;;;;;;;15.05;7.90;;;;;;;;;;5050298;28;20029;-71
2023/04/15 07:52:47;;;;;;;14.32;6.85;;;;;;;;;;5050598;28;20025;-70
2023/04/15 07:55:13;;;;;;;18.50;7.30;;;;;;;;;;5050178;28;20017;-71
2023/04/15 07:57:38;;;;;;;17.13;8.45;;;;;;;;;;5050125;28;20112;-69
2023/04/15 08:00:04;;;;;;;17.55;8.57;;;;;;;;;;5044732;28;20032;-70
2023/04/15 08:02:30;;;;;;;16.33;7.97;;;;;;;;;;5039298;28;20056;-71
2023/04/15 08:04:56;;;;;;;18.52;8.60;;;;;;;;;;5049798;28;20037;-69
2023/04/15 08:07:21;;;;;;;17.48;8.57;;;;;;;;;;5049624;28;20379;-69
2023/04/15 08:09:47;;;;;;;17.77;9.18;;;;;;;;;;5049924;28;20025;-70
2023/04/15 08:12:12;;;;;;;20.85;9.55;;;;;;;;;;5050032;28;20044;-68
2023/04/15 08:14:38;;;;;;;22.02;9.25;;;;;;;;;;5049948;28;20066;-67
2023/04/15 08:17:03;;;;;;;16.17;7.38;;;;;;;;;;5049346;28;20081;-68
2023/04/15 08:19:28;;;;;;;16.42;8.75;;;;;;;;;;5050127;28;20032;-69
2023/04/15 08:21:54;;;;;;;16.38;8.60;;;;;;;;;;5049747;28;20044;-72
2023/04/15 08:24:19;;;;;;;14.50;8.00;;;;;;;;;;5049700;28;20021;-68
2023/04/15 08:26:46;;;;;;;17.30;8.32;;;;;;;;;;5049875;28;20040;-68
2023/04/15 08:29:11;;;;;;;14.07;7.93;;;;;;;;;;5049672;28;20033;-71
2023/04/15 08:31:36;;;;;;;16.08;8.77;;;;;;;;;;5050138;28;20090;-68
2023/04/15 08:34:02;;;;;;;15.20;8.32;;;;;;;;;;5049647;28;20525;-67
2023/04/15 08:36:27;;;;;;;14.73;8.88;;;;;;;;;;5049686;28;20410;-68
2023/04/15 08:38:52;;;;;;;16.58;8.60;;;;;;;;;;5050063;28;20390;-69
2023/04/15 08:41:22;;;;;;;18.02;9.13;;;;;;;;;;5049713;28;20013;-68
2023/04/15 08:43:56;;;;;;;14.32;7.55;;;;;;;;;;5049630;28;20096;-71
2023/04/15 08:46:22;;;;;;;15.75;7.65;;;;;;;;;;5048362;28;20051;-66
2023/04/15 08:48:48;;;;;;;15.85;8.95;;;;;;;;;;5048435;28;20021;-69
2023/04/15 08:51:15;;;;;;;15.75;8.80;;;;;;;;;;5048939;28;20040;-68
2023/04/15 08:53:40;;;;;;;21.67;9.70;;;;;;;;;;5046241;28;20612;-68
2023/04/15 08:56:06;;;;;;;20.77;10.07;;;;;;;;;;5048293;28;20021;-69
2023/04/15 08:58:32;;;;;;;17.77;8.73;;;;;;;;;;5047325;28;20052;-70
2023/04/15 09:00:57;;;;;;;21.70;10.20;;;;;;;;;;5039176;28;20025;-68
2023/04/15 09:03:23;;;;;;;20.77;9.85;;;;;;;;;;5045056;28;20124;-68
2023/04/15 09:05:49;;;;;;;23.92;10.25;;;;;;;;;;5048309;28;20013;-70
2023/04/15 09:08:15;;;;;;;19.23;10.20;;;;;;;;;;5048746;28;20039;-68
2023/04/15 09:10:40;;;;;;;17.42;10.27;;;;;;;;;;5048953;28;20021;-71
2023/04/15 09:13:05;;;;;;;20.75;10.52;;;;;;;;;;5048501;28;20512;-69
2023/04/15 09:15:31;;;;;;;22.42;10.55;;;;;;;;;;5048371;28;20596;-68
2023/04/15 09:17:57;;;;;;;17.80;10.02;;;;;;;;;;5048870;28;20029;-67
2023/04/15 09:20:22;;;;;;;20.63;11.70;;;;;;;;;;5049284;28;20359;-69
2023/04/15 09:22:48;;;;;;;25.13;11.55;;;;;;;;;;5048935;28;20025;-68
2023/04/15 09:25:13;;;;;;;19.52;10.88;;;;;;;;;;5048104;28;20055;-70
2023/04/15 09:27:47;;;;;;;21.10;11.25;;;;;;;;;;5048739;28;20060;-70
2023/04/15 09:30:12;;;;;;;23.55;12.40;;;;;;;;;;5047842;28;20512;-68
2023/04/15 09:32:46;;;;;;;27.35;11.75;;;;;;;;;;5048122;28;20032;-68
2023/04/15 09:35:12;;;;;;;26.67;12.18;;;;;;;;;;5047973;28;20024;-69
2023/04/15 09:37:37;;;;;;;23.77;11.13;;;;;;;;;;5047964;28;20025;-66
2023/04/15 09:40:02;;;;;;;24.65;13.30;;;;;;;;;;5048135;28;20017;-67
2023/04/15 09:42:28;;;;;;;22.50;12.70;;;;;;;;;;5048841;28;20017;-68
2023/04/15 09:44:53;;;;;;;27.98;12.70;;;;;;;;;;5048959;28;20021;-69
2023/04/15 09:47:28;;;;;;;30.00;15.48;;;;;;;;;;5048938;28;20478;-72
2023/04/15 09:49:54;;;;;;;28.63;15.25;;;;;;;;;;5048321;28;20380;-69
2023/04/15 09:52:20;;;;;;;31.20;15.68;;;;;;;;;;5042497;28;20494;-69
2023/04/15 09:54:45;;;;;;;35.85;17.27;;;;;;;;;;5032345;28;20423;-72
2023/04/15 09:57:11;;;;;;;37.80;16.05;;;;;;;;;;5035603;28;20031;-69
2023/04/15 09:59:36;;;;;;;30.52;14.95;;;;;;;;;;5032091;28;21628;-69
2023/04/15 10:02:04;;;;;;;32.17;14.98;;;;;;;;;;5036130;28;20025;-67
2023/04/15 10:04:29;;;;;;;33.03;16.67;;;;;;;;;;5032842;28;20167;-69
2023/04/15 10:06:55;;;;;;;34.65;17.45;;;;;;;;;;5037364;28;20099;-70
2023/04/15 10:09:21;;;;;;;28.27;15.57;;;;;;;;;;5039806;28;20048;-74
2023/04/15 10:11:48;;;;;;;27.10;14.25;;;;;;;;;;5040681;28;20048;-68
2023/04/15 10:14:14;;;;;;;32.30;17.67;;;;;;;;;;5032578;28;20025;-68
2023/04/15 10:16:41;;;;;;;30.52;16.15;;;;;;;;;;5032886;28;20116;-70
2023/04/15 10:19:08;;;;;;;32.05;17.05;;;;;;;;;;5036436;28;20153;-66
2023/04/15 10:21:33;;;;;;;37.08;18.30;;;;;;;;;;5032238;28;21323;-68
2023/04/15 10:24:00;;;;;;;33.13;16.75;;;;;;;;;;5035898;28;20139;-68
2023/04/15 10:26:26;;;;;;;32.17;17.35;;;;;;;;;;5034635;28;20017;-71
2023/04/15 10:28:52;;;;;;;34.42;17.48;;;;;;;;;;5037642;28;20098;-69
2023/04/15 10:31:18;;;;;;;35.88;19.33;;;;;;;;;;5037968;28;20049;-70
2023/04/15 10:33:44;;;;;;;34.28;18.40;;;;;;;;;;5032533;28;20104;-71
2023/04/15 10:36:10;;;;;;;36.53;18.02;;;;;;;;;;5035879;28;20445;-72
2023/04/15 10:38:40;;;;;;;29.52;17.33;;;;;;;;;;5033584;28;20044;-69
2023/04/15 10:41:11;;;;;;;36.88;18.17;;;;;;;;;;5038602;28;20508;-70
2023/04/15 10:43:37;;;;;;;35.95;18.20;;;;;;;;;;5035969;28;20025;-71
2023/04/15 10:46:04;;;;;;;29.35;17.17;;;;;;;;;;5034301;28;20040;-71
2023/04/15 10:48:29;;;;;;;28.95;16.55;;;;;;;;;;5036436;28;20060;-69
2023/04/15 10:50:55;;;;;;;30.65;17.30;;;;;;;;;;5036581;28;20514;-74
2023/04/15 10:53:30;;;;;;;33.00;17.20;;;;;;;;;;5031705;28;20108;-69
2023/04/15 10:55:56;;;;;;;34.72;17.67;;;;;;;;;;5031660;28;20041;-69
2023/04/15 10:58:24;;;;;;;29.50;15.55;;;;;;;;;;5034441;28;20021;-70
2023/04/15 11:00:53;;;;;;;29.25;16.90;;;;;;;;;;5036854;28;20070;-68
2023/04/15 11:03:38;;;;;;;26.73;16.55;;;;;;;;;;5037143;28;20033;-72
2023/04/15 11:06:05;;;;;;;28.90;16.90;;;;;;;;;;5033929;28;20106;-71
2023/04/15 11:08:49;;;;;;;27.75;16.15;;;;;;;;;;5036001;28;20025;-70
2023/04/15 11:11:14;;;;;;;25.73;15.55;;;;;;;;;;5038213;28;20071;-68
2023/04/15 11:13:47;;;;;;;31.38;15.82;;;;;;;;;;5035280;28;20454;-72
2023/04/15 11:16:12;;;;;;;29.70;16.45;;;;;;;;;;5037010;28;20021;-72
2023/04/15 11:18:37;;;;;;;24.10;15.38;;;;;;;;;;5034761;28;20230;-69
2023/04/15 11:21:04;;;;;;;27.60;16.35;;;;;;;;;;5036806;28;20028;-69
2023/04/15 11:23:37;;;;;;;27.35;15.50;;;;;;;;;;5035278;28;20133;-71
2023/04/15 11:26:08;;;;;;;27.42;16.30;;;;;;;;;;5035630;28;20569;-70
2023/04/15 11:28:34;;;;;;;24.50;14.70;;;;;;;;;;5035013;28;20120;-66
2023/04/15 11:31:07;;;;;;;27.10;15.45;;;;;;;;;;5032831;28;20033;-69
2023/04/15 11:33:32;;;;;;;28.90;15.32;;;;;;;;;;5037379;22;20087;-69
2023/04/15 11:35:58;;;;;;;25.58;15.38;;;;;;;;;;5039437;28;20104;-67
2023/04/15 11:38:23;;;;;;;25.05;15.60;;;;;;;;;;5041373;28;20422;-67
2023/04/15 11:40:49;;;;;;;28.13;15.63;;;;;;;;;;5022713;28;20056;-68
2023/04/15 11:43:17;;;;;;;29.30;16.52;;;;;;;;;;5041546;28;20094;-68
2023/04/15 11:45:58;;;;;;;28.00;14.93;;;;;;;;;;5039598;28;20502;-69
2023/04/15 11:48:31;;;;;;;25.67;15.30;;;;;;;;;;5022118;28;20025;-68
2023/04/15 11:50:57;;;;;;;28.13;15.43;;;;;;;;;;5039656;28;20031;-67
2023/04/15 11:53:23;;;;;;;27.77;15.57;;;;;;;;;;5039937;28;20017;-68
2023/04/15 11:55:49;;;;;;;25.60;14.80;;;;;;;;;;5040271;28;20083;-67
2023/04/15 11:58:15;;;;;;;29.90;15.43;;;;;;;;;;5039778;28;20144;-68
2023/04/15 12:00:44;;;;;;;29.40;15.32;;;;;;;;;;5041719;28;20127;-67
2023/04/15 12:03:17;;;;;;;24.90;14.25;;;;;;;;;;5041607;28;20043;-69
2023/04/15 12:06:22;;;;;;;26.13;13.15;;;;;;;;;;5029185;28;20037;-67
2023/04/15 12:08:48;;;;;;;26.05;14.02;;;;;;;;;;4928751;29;20072;-69
2023/04/15 12:11:16;;;;;;;20.95;13.18;;;;;;;;;;4929941;29;20445;-68
2023/04/15 12:13:45;;;;;;;21.70;12.38;;;;;;;;;;4929092;29;20060;-66
2023/04/15 12:16:11;;;;;;;;;;;;;;;;;;4927605;29;20559;-67
2023/04/15 12:18:39;;;;;;;33.97;15.63;;;;;;;;;;4929531;29;19918;-66
2023/04/15 12:21:10;;;;;;;29.43;15.17;;;;;;;;;;4925992;29;20127;-64
2023/04/15 12:23:52;;;;;;;28.73;15.68;;;;;;;;;;4927238;29;21115;-64
2023/04/15 12:26:24;;;;;;;28.30;15.43;;;;;;;;;;4934805;29;20067;-66
2023/04/15 12:28:52;;;;;;;24.40;13.38;;;;;;;;;;4932214;29;20027;-67
2023/04/15 12:31:18;;;;;;;26.47;15.93;;;;;;;;;;4927815;29;20027;-68
2023/04/15 12:33:46;;;;;;;30.60;15.40;;;;;;;;;;4924884;29;20282;-64
2023/04/15 12:36:12;;;;;;;19.75;12.07;;;;;;;;;;4932033;29;20338;-68
2023/04/15 12:38:37;;;;;;;25.35;14.70;;;;;;;;;;4939853;28;20536;-68
2023/04/15 12:41:02;;;;;;;22.02;11.02;;;;;;;;;;5039992;28;20025;-67
2023/04/15 12:43:27;;;;;;;20.52;11.13;;;;;;;;;;5040207;28;20087;-66
2023/04/15 12:45:53;;;;;;;30.88;17.27;;;;;;;;;;5037756;28;20016;-68
2023/04/15 12:48:18;;;;;;;15.43;9.75;;;;;;;;;;5038189;28;20107;-66
2023/04/15 12:50:43;;;;;;;17.85;11.25;;;;;;;;;;5040423;28;20045;-68
2023/04/15 12:53:08;;;;;;;15.85;9.15;;;;;;;;;;5039921;28;20120;-64
2023/04/15 12:55:34;;;;;;;12.23;7.50;;;;;;;;;;5038510;28;20040;-67
2023/04/15 12:57:59;;;;;;;13.20;7.50;;;;;;;;;;5038364;28;20036;-67
2023/04/15 13:00:24;;;;;;;12.45;6.97;;;;;;;;;;5040758;28;20020;-66
2023/04/15 13:02:49;;;;;;;16.00;8.02;;;;;;;;;;5040396;28;20069;-66
2023/04/15 13:05:14;;;;;;;16.08;9.43;;;;;;;;;;5038130;28;20037;-68
2023/04/15 13:07:40;;;;;;;9.35;6.55;;;;;;;;;;5044479;28;20023;-65
2023/04/15 13:10:06;;;;;;;13.15;7.35;;;;;;;;;;5047119;28;20024;-69
2023/04/15 13:12:35;;;;;;;11.18;6.70;;;;;;;;;;5028693;28;20096;-69
2023/04/15 13:15:00;;;;;;;11.48;6.80;;;;;;;;;;5046652;28;20469;-65
2023/04/15 13:17:25;;;;;;;16.15;8.65;;;;;;;;;;5047209;28;20094;-69
2023/04/15 13:19:50;;;;;;;26.25;12.23;;;;;;;;;;5047349;28;20115;-68
2023/04/15 13:22:16;;;;;;;25.05;11.13;;;;;;;;;;5040272;28;20432;-67
2023/04/15 13:24:41;;;;;;;22.98;10.93;;;;;;;;;;5039944;28;20478;-68
2023/04/15 13:27:07;;;;;;;70.53;23.75;;;;;;;;;;5041160;28;20104;-65
2023/04/15 13:29:32;;;;;;;68.80;27.85;;;;;;;;;;5040260;28;20071;-68
2023/04/15 13:31:57;;;;;;;32.38;13.25;;;;;;;;;;5039446;28;20131;-69
2023/04/15 13:34:22;;;;;;;28.83;12.98;;;;;;;;;;5040462;28;20020;-69
2023/04/15 13:36:48;;;;;;;40.78;15.82;;;;;;;;;;5043890;28;20079;-69
2023/04/15 13:39:13;;;;;;;25.02;13.13;;;;;;;;;;5040362;28;20033;-66
2023/04/15 13:41:39;;;;;;;20.23;11.02;;;;;;;;;;5043488;28;20029;-65
2023/04/15 13:44:04;;;;;;;18.67;10.20;;;;;;;;;;5043629;28;20082;-70
2023/04/15 13:46:30;;;;;;;12.82;7.93;;;;;;;;;;5044145;28;20098;-67
2023/04/15 13:48:55;;;;;;;14.10;7.65;;;;;;;;;;5044670;28;20025;-67
2023/04/15 13:51:20;;;;;;;17.77;8.82;;;;;;;;;;5042489;28;20045;-70
2023/04/15 13:53:46;;;;;;;14.63;8.68;;;;;;;;;;5042906;28;20029;-68
2023/04/15 13:56:11;;;;;;;10.73;6.82;;;;;;;;;;5044111;28;20045;-70
2023/04/15 13:58:37;;;;;;;11.82;6.78;;;;;;;;;;5041498;28;20037;-68
2023/04/15 14:01:02;;;;;;;13.48;7.55;;;;;;;;;;5043523;28;20009;-69
2023/04/15 14:03:28;;;;;;;9.48;6.15;;;;;;;;;;5043391;28;20136;-69
2023/04/15 14:05:54;;;;;;;11.45;6.40;;;;;;;;;;5044009;28;20043;-69
2023/04/15 14:08:20;;;;;;;10.45;6.10;;;;;;;;;;5044747;28;20041;-71
2023/04/15 14:10:47;;;;;;;11.38;7.18;;;;;;;;;;5043934;28;20049;-73
2023/04/15 14:13:13;;;;;;;10.60;5.85;;;;;;;;;;5045316;28;20029;-72
2023/04/15 14:15:39;;;;;;;9.88;6.50;;;;;;;;;;5044765;28;20338;-68
2023/04/15 14:18:04;;;;;;;15.18;5.80;;;;;;;;;;5043562;28;20465;-68
2023/04/15 14:20:29;;;;;;;11.20;6.55;;;;;;;;;;5042277;28;20036;-70
2023/04/15 14:22:55;;;;;;;12.88;5.55;;;;;;;;;;5042143;28;20032;-71